createdAt,value
2023-06-08T00:00:53.005Z,17.91
2023-06-08T00:04:54.959Z,17.81
2023-06-08T00:08:56.704Z,17.80
2023-06-08T00:12:58.672Z,17.78
2023-06-08T00:17:04.167Z,17.77
2023-06-08T00:21:05.947Z,17.76
2023-06-08T00:25:08.123Z,17.72
2023-06-08T00:29:09.894Z,17.64
2023-06-08T00:33:12.342Z,17.58
2023-06-08T00:37:14.101Z,17.60
2023-06-08T00:41:15.869Z,17.57
2023-06-08T00:45:17.852Z,17.54
2023-06-08T00:49:20.052Z,17.52
2023-06-08T00:53:25.617Z,17.47
2023-06-08T00:57:29.638Z,17.39
2023-06-08T01:01:33.462Z,17.39
2023-06-08T01:05:35.277Z,17.33
2023-06-08T01:09:50.141Z,17.33
2023-06-08T01:14:14.469Z,17.33
2023-06-08T01:18:19.194Z,17.36
2023-06-08T01:22:28.411Z,17.39
2023-06-08T01:26:32.677Z,17.37
2023-06-08T01:30:37.134Z,17.33
2023-06-08T01:34:40.994Z,17.33
2023-06-08T01:39:04.493Z,17.30
2023-06-08T01:43:09.965Z,17.28
2023-06-08T01:47:16.039Z,17.26
2023-06-08T01:51:20.012Z,17.25
2023-06-08T01:55:22.676Z,17.23
2023-06-08T01:59:24.460Z,17.17
2023-06-08T02:03:26.459Z,17.11
2023-06-08T02:07:28.373Z,17.05
2023-06-08T02:11:30.140Z,16.99
2023-06-08T02:15:31.880Z,16.89
2023-06-08T02:19:33.760Z,16.78
2023-06-08T02:23:36.225Z,16.66
2023-06-08T02:27:38.399Z,16.53
2023-06-08T02:31:40.283Z,16.38
2023-06-08T02:35:42.062Z,16.27
2023-06-08T02:39:43.884Z,16.12
2023-06-08T02:43:45.737Z,16.01
2023-06-08T02:47:47.646Z,15.92
2023-06-08T02:51:49.853Z,15.90
2023-06-08T02:55:52.296Z,15.88
2023-06-08T02:59:58.936Z,15.87
2023-06-08T03:04:01.743Z,15.83
2023-06-08T03:08:10.459Z,15.76
2023-06-08T03:12:13.889Z,15.67
2023-06-08T03:16:18.590Z,15.60
2023-06-08T03:20:20.571Z,15.53
2023-06-08T03:24:34.112Z,15.47
2023-06-08T03:28:36.294Z,15.39
2023-06-08T03:32:39.688Z,15.30
2023-06-08T03:36:41.779Z,15.20
2023-06-08T03:40:53.202Z,15.12
2023-06-08T03:44:56.773Z,15.11
2023-06-08T03:48:59.530Z,15.08
2023-06-08T03:53:01.884Z,15.07
2023-06-08T03:57:03.949Z,15.07
2023-06-08T04:01:05.857Z,15.06
2023-06-08T04:05:09.074Z,15.03
2023-06-08T04:09:12.631Z,15.00
2023-06-08T04:13:15.300Z,14.98
2023-06-08T04:17:18.769Z,14.96
2023-06-08T04:21:22.544Z,14.98
2023-06-08T04:25:26.388Z,14.97
2023-06-08T04:29:31.464Z,14.95
2023-06-08T04:33:33.949Z,14.97
2023-06-08T04:37:39.128Z,14.98
2023-06-08T04:41:41.503Z,15.02
2023-06-08T04:45:45.638Z,15.11
2023-06-08T04:49:48.479Z,15.17
2023-06-08T04:53:52.342Z,15.26
2023-06-08T04:57:54.218Z,15.36
2023-06-08T05:01:56.745Z,15.50
2023-06-08T05:05:59.646Z,15.64
2023-06-08T05:10:02.441Z,15.78
2023-06-08T05:14:04.460Z,15.90
2023-06-08T05:18:06.513Z,16.02
2023-06-08T05:22:08.282Z,16.15
2023-06-08T05:26:10.138Z,16.25
2023-06-08T05:30:12.513Z,16.38
2023-06-08T05:34:14.211Z,16.55
2023-06-08T05:38:21.161Z,16.70
2023-06-08T05:42:23.285Z,16.84
2023-06-08T05:46:26.605Z,17.00
2023-06-08T05:50:29.071Z,17.11
2023-06-08T05:54:30.828Z,17.26
2023-06-08T05:58:48.224Z,17.38
2023-06-08T06:02:51.901Z,17.53
2023-06-08T06:06:53.708Z,17.74
2023-06-08T06:10:55.966Z,17.93
2023-06-08T06:14:57.726Z,18.13
2023-06-08T06:18:59.597Z,18.34
2023-06-08T06:23:01.326Z,18.50
2023-06-08T06:27:09.188Z,18.68
2023-06-08T06:31:11.777Z,18.89
2023-06-08T06:35:13.543Z,19.06
2023-06-08T06:39:16.427Z,19.24
2023-06-08T06:43:18.314Z,19.41
2023-06-08T06:47:26.857Z,19.57
2023-06-08T06:51:29.110Z,19.71
2023-06-08T06:55:35.756Z,19.90
2023-06-08T06:59:39.790Z,20.08
2023-06-08T07:03:44.395Z,20.26
2023-06-08T07:07:46.778Z,20.44
2023-06-08T07:11:55.779Z,20.67
2023-06-08T07:16:08.204Z,20.86
2023-06-08T07:20:10.184Z,21.10
2023-06-08T07:24:33.772Z,21.30
2023-06-08T07:28:35.055Z,21.45
2023-06-08T07:32:37.882Z,21.62
2023-06-08T07:36:39.645Z,21.85
2023-06-08T07:40:41.386Z,21.99
2023-06-08T07:44:43.098Z,22.23
2023-06-08T07:48:45.778Z,22.40
2023-06-08T07:52:51.440Z,22.59
2023-06-08T07:56:53.713Z,22.75
2023-06-08T08:00:55.610Z,23.02
2023-06-08T08:04:57.343Z,23.16
2023-06-08T08:08:59.784Z,23.27
2023-06-08T08:13:01.497Z,23.38
2023-06-08T08:17:03.827Z,23.62
2023-06-08T08:21:06.429Z,23.83
2023-06-08T08:25:09.357Z,23.93
2023-06-08T08:29:11.637Z,24.05
2023-06-08T08:33:17.331Z,24.04
2023-06-08T08:37:20.085Z,24.10
2023-06-08T08:41:22.830Z,24.26
2023-06-08T08:45:29.160Z,24.31
2023-06-08T08:49:37.779Z,24.44
2023-06-08T08:53:42.070Z,24.79
2023-06-08T08:57:44.202Z,24.99
2023-06-08T09:01:48.210Z,25.06
2023-06-08T09:05:53.263Z,25.09
2023-06-08T09:10:31.786Z,25.18
2023-06-08T09:14:34.115Z,25.36
2023-06-08T09:18:36.080Z,25.62
2023-06-08T09:22:38.331Z,25.73
2023-06-08T09:26:47.275Z,25.81
2023-06-08T09:30:50.444Z,26.15
2023-06-08T09:34:59.678Z,26.25
2023-06-08T09:39:05.861Z,26.39
2023-06-08T09:43:07.964Z,26.45
2023-06-08T09:47:28.079Z,26.53
2023-06-08T09:51:31.581Z,26.52
2023-06-08T09:55:36.763Z,26.78
2023-06-08T09:59:42.464Z,26.81
2023-06-08T10:03:49.299Z,27.10
2023-06-08T10:07:56.005Z,26.98
2023-06-08T10:11:58.846Z,27.28
2023-06-08T10:16:00.670Z,27.62
2023-06-08T10:20:03.204Z,27.80
2023-06-08T10:24:07.226Z,28.04
2023-06-08T10:28:10.294Z,28.04
2023-06-08T10:32:12.650Z,28.34
2023-06-08T10:36:14.468Z,28.49
2023-06-08T10:40:16.610Z,28.59
2023-06-08T10:44:42.448Z,28.76
2023-06-08T10:48:45.684Z,29.18
2023-06-08T10:52:50.999Z,29.38
2023-06-08T10:57:12.434Z,29.33
2023-06-08T11:01:20.978Z,29.04
2023-06-08T11:05:24.640Z,29.19
2023-06-08T11:09:26.570Z,29.13
2023-06-08T11:13:29.349Z,29.58
2023-06-08T11:17:36.828Z,29.80
2023-06-08T11:21:38.995Z,29.21
2023-06-08T11:25:42.152Z,28.62
2023-06-08T11:29:48.520Z,28.77
2023-06-08T11:33:50.860Z,29.79
2023-06-08T11:37:57.797Z,30.47
2023-06-08T11:42:02.263Z,31.13
2023-06-08T11:46:04.809Z,31.51
2023-06-08T11:50:07.643Z,31.88
2023-06-08T11:54:10.657Z,31.73
2023-06-08T11:58:16.043Z,31.96
2023-06-08T12:02:23.298Z,32.58
2023-06-08T12:06:27.829Z,32.49
2023-06-08T12:10:40.911Z,31.62
2023-06-08T12:14:47.157Z,30.68
2023-06-08T12:18:48.912Z,29.82
2023-06-08T12:22:50.704Z,29.34
2023-06-08T12:26:52.411Z,29.60
2023-06-08T12:30:56.124Z,30.94
2023-06-08T12:34:57.944Z,32.00
2023-06-08T12:39:04.311Z,32.04
2023-06-08T12:43:06.156Z,31.03
2023-06-08T12:47:08.177Z,30.63
2023-06-08T12:51:10.874Z,30.15
2023-06-08T12:55:12.623Z,29.44
2023-06-08T12:59:14.477Z,28.91
2023-06-08T13:03:16.327Z,28.85
2023-06-08T13:07:18.120Z,29.51
2023-06-08T13:11:19.978Z,31.39
2023-06-08T13:15:21.653Z,30.74
2023-06-08T13:19:23.968Z,30.42
2023-06-08T13:23:26.025Z,32.88
2023-06-08T13:27:28.033Z,32.73
2023-06-08T13:31:30.868Z,31.58
2023-06-08T13:35:33.983Z,30.67
2023-06-08T13:39:36.008Z,30.00
2023-06-08T13:43:38.190Z,29.98
2023-06-08T13:47:42.455Z,31.86
2023-06-08T13:51:45.696Z,31.95
2023-06-08T13:55:49.773Z,31.77
2023-06-08T13:59:51.543Z,30.94
2023-06-08T14:03:53.556Z,30.33
2023-06-08T14:07:55.608Z,29.94
2023-06-08T14:11:57.518Z,29.45
2023-06-08T14:15:59.876Z,28.94
2023-06-08T14:20:01.874Z,28.63
2023-06-08T14:24:03.878Z,28.62
2023-06-08T14:28:06.033Z,28.37
2023-06-08T14:32:08.129Z,28.13
2023-06-08T14:36:11.362Z,27.80
2023-06-08T14:40:14.232Z,27.45
2023-06-08T14:44:16.193Z,27.25
2023-06-08T14:48:18.940Z,27.11
2023-06-08T14:52:20.903Z,27.09
2023-06-08T14:56:22.885Z,27.31
2023-06-08T15:00:24.809Z,27.82
2023-06-08T15:04:27.001Z,29.13
2023-06-08T15:08:28.730Z,30.16
2023-06-08T15:12:30.518Z,29.23
2023-06-08T15:16:32.928Z,27.89
2023-06-08T15:20:35.707Z,26.40
2023-06-08T15:24:37.885Z,25.55
2023-06-08T15:28:39.736Z,25.02
2023-06-08T15:32:41.833Z,24.25
2023-06-08T15:36:44.467Z,23.74
2023-06-08T15:40:46.841Z,23.28
2023-06-08T15:44:48.428Z,22.64
2023-06-08T15:48:56.017Z,21.87
2023-06-08T15:52:59.382Z,20.94
2023-06-08T15:57:01.909Z,20.45
2023-06-08T16:01:04.868Z,20.07
2023-06-08T16:05:07.266Z,19.76
2023-06-08T16:09:09.157Z,19.49
2023-06-08T16:13:11.168Z,19.22
2023-06-08T16:17:13.057Z,18.76
2023-06-08T16:21:16.930Z,18.08
2023-06-08T16:25:18.753Z,17.28
2023-06-08T16:29:24.135Z,17.01
2023-06-08T16:33:25.920Z,16.93
2023-06-08T16:37:27.876Z,16.92
2023-06-08T16:41:29.797Z,16.80
2023-06-08T16:45:32.869Z,16.62
2023-06-08T16:49:35.111Z,16.57
2023-06-08T16:53:38.301Z,16.62
2023-06-08T16:57:40.123Z,16.51
2023-06-08T17:01:48.088Z,16.39
2023-06-08T17:05:51.892Z,16.34
2023-06-08T17:09:56.198Z,16.29
2023-06-08T17:14:00.289Z,16.29
2023-06-08T17:18:02.287Z,16.33
2023-06-08T17:22:04.568Z,16.36
2023-06-08T17:26:06.821Z,16.46
2023-06-08T17:30:10.904Z,16.51
2023-06-08T17:34:16.480Z,16.47
2023-06-08T17:38:19.858Z,16.39
2023-06-08T17:42:23.967Z,16.43
2023-06-08T17:46:26.188Z,16.50
2023-06-08T17:50:29.786Z,16.60
2023-06-08T17:54:31.683Z,16.70
2023-06-08T17:58:33.555Z,16.80
2023-06-08T18:02:36.901Z,16.88
2023-06-08T18:06:41.906Z,16.94
2023-06-08T18:10:44.878Z,17.00
2023-06-08T18:14:46.560Z,17.05
2023-06-08T18:18:51.768Z,17.11
2023-06-08T18:22:54.897Z,17.14
2023-06-08T18:26:57.564Z,17.13
2023-06-08T18:30:59.354Z,17.10
2023-06-08T18:35:03.424Z,17.04
2023-06-08T18:39:06.607Z,17.02
2023-06-08T18:43:09.260Z,17.02
2023-06-08T18:47:11.183Z,17.03
2023-06-08T18:51:13.093Z,16.99
2023-06-08T18:55:15.037Z,16.92
2023-06-08T18:59:18.962Z,16.90
2023-06-08T19:03:21.366Z,16.89
2023-06-08T19:07:25.098Z,16.93
2023-06-08T19:11:27.925Z,16.93
2023-06-08T19:15:31.252Z,16.92
2023-06-08T19:19:38.716Z,16.87
2023-06-08T19:23:40.523Z,16.79
2023-06-08T19:27:42.281Z,16.73
2023-06-08T19:31:44.075Z,16.69
2023-06-08T19:35:46.248Z,16.67
2023-06-08T19:39:47.931Z,16.66
2023-06-08T19:43:51.701Z,16.66
2023-06-08T19:47:53.757Z,16.62
2023-06-08T19:51:56.943Z,16.58
2023-06-08T19:55:58.745Z,16.57
2023-06-08T20:00:00.630Z,16.62
2023-06-08T20:04:09.988Z,16.60
2023-06-08T20:08:13.545Z,16.57
2023-06-08T20:12:15.888Z,16.52
2023-06-08T20:16:19.526Z,16.47
2023-06-08T20:20:21.267Z,16.41
2023-06-08T20:24:22.984Z,16.41
2023-06-08T20:28:26.275Z,16.40
2023-06-08T20:32:28.062Z,16.38
2023-06-08T20:36:29.914Z,16.36
2023-06-08T20:40:31.667Z,16.35
2023-06-08T20:44:33.928Z,16.41
2023-06-08T20:48:37.920Z,16.46
2023-06-08T20:52:42.686Z,16.52
2023-06-08T20:56:44.556Z,16.56
2023-06-08T21:00:46.850Z,16.60
2023-06-08T21:04:50.755Z,16.66
2023-06-08T21:08:54.902Z,16.66
2023-06-08T21:12:58.292Z,16.66
2023-06-08T21:17:03.128Z,16.65
2023-06-08T21:21:05.360Z,16.60
2023-06-08T21:25:07.598Z,16.53
2023-06-08T21:29:09.758Z,16.44
2023-06-08T21:33:15.010Z,16.40
2023-06-08T21:37:17.321Z,16.33
2023-06-08T21:41:19.105Z,16.32
2023-06-08T21:45:20.869Z,16.32
2023-06-08T21:49:23.356Z,16.32
2023-06-08T21:53:25.214Z,16.26
2023-06-08T21:57:27.022Z,16.16
2023-06-08T22:01:30.409Z,16.07
2023-06-08T22:05:32.329Z,16.04
2023-06-08T22:09:35.285Z,15.94
2023-06-08T22:13:37.925Z,15.82
2023-06-08T22:17:40.011Z,15.70
2023-06-08T22:21:42.262Z,15.61
2023-06-08T22:25:44.149Z,15.54
2023-06-08T22:29:45.951Z,15.47
2023-06-08T22:33:49.953Z,15.46
2023-06-08T22:37:51.750Z,15.45
2023-06-08T22:41:53.814Z,15.39
2023-06-08T22:45:55.672Z,15.37
2023-06-08T22:49:59.111Z,15.36
2023-06-08T22:54:01.526Z,15.36
2023-06-08T22:58:03.891Z,15.33
2023-06-08T23:02:06.395Z,15.34
2023-06-08T23:06:08.964Z,15.40
2023-06-08T23:10:15.834Z,15.47
2023-06-08T23:14:17.800Z,15.55
2023-06-08T23:18:32.813Z,15.58
2023-06-08T23:22:35.169Z,15.44
2023-06-08T23:26:38.065Z,15.33
2023-06-08T23:30:39.732Z,15.18
2023-06-08T23:34:41.513Z,15.08
2023-06-08T23:38:44.787Z,14.98
2023-06-08T23:42:46.923Z,14.86
2023-06-08T23:46:50.100Z,14.77
2023-06-08T23:50:51.870Z,14.68
2023-06-08T23:54:53.664Z,14.62
2023-06-08T23:58:55.848Z,14.64
